Time;durP1;ratioP1;P1;durP2;ratioP2;P2;SDS_P1;SDS_P2;PMS_P1;PMS_P2;Temp;Humidity;BMP_temperature;BMP_pressure;BME280_temperature;BME280_humidity;BME280_pressure;Samples;Min_cycle;Max_cycle;Signal;HPM_P1;HPM_P2
2023/01/29 00:01:03;;;;;;;3.30;2.88;;;;;;;;;;6246415;22;20016;-86
2023/01/29 00:03:30;;;;;;;5.15;3.58;;;;;;;;;;6223280;22;20019;-87
2023/01/29 00:05:58;;;;;;;3.33;3.03;;;;;;;;;;6249406;22;20023;-88
2023/01/29 00:08:30;;;;;;;3.70;3.40;;;;;;;;;;6250556;22;20023;-87
2023/01/29 00:11:02;;;;;;;3.88;3.38;;;;;;;;;;6247667;22;20101;-86
2023/01/29 00:13:33;;;;;;;4.18;2.55;;;;;;;;;;6248473;22;20020;-87
2023/01/29 00:16:01;;;;;;;3.05;2.72;;;;;;;;;;6248820;22;20026;-86
2023/01/29 00:18:29;;;;;;;3.33;3.00;;;;;;;;;;6249749;22;20023;-87
2023/01/29 00:21:01;;;;;;;6.60;4.05;;;;;;;;;;6224643;22;20363;-88
2023/01/29 00:23:30;;;;;;;4.03;2.75;;;;;;;;;;6223566;22;20035;-87
2023/01/29 00:26:03;;;;;;;3.65;2.70;;;;;;;;;;6250407;22;20027;-87
2023/01/29 00:28:30;;;;;;;3.95;2.90;;;;;;;;;;6225170;22;20351;-88
2023/01/29 00:30:58;;;;;;;3.42;2.60;;;;;;;;;;6224661;22;20065;-87
2023/01/29 00:33:26;;;;;;;7.13;2.97;;;;;;;;;;6227322;22;20471;-86
2023/01/29 00:35:56;;;;;;;5.00;3.20;;;;;;;;;;6229125;22;20027;-87
2023/01/29 00:38:23;;;;;;;5.57;3.60;;;;;;;;;;6234540;22;20019;-89
2023/01/29 00:46:24;;;;;;;5.22;4.47;;;;;;;;;;6223735;22;20020;-87
2023/01/29 00:48:54;;;;;;;4.93;4.25;;;;;;;;;;6249123;22;20015;-86
2023/01/29 00:51:22;;;;;;;3.47;2.80;;;;;;;;;;6249643;22;20462;-87
2023/01/29 00:53:50;;;;;;;3.78;3.25;;;;;;;;;;6224846;22;20020;-87
2023/01/29 00:56:18;;;;;;;4.95;2.83;;;;;;;;;;6249643;22;20015;-87
2023/01/29 00:58:46;;;;;;;3.78;2.65;;;;;;;;;;6249774;22;20007;-87
2023/01/29 01:01:13;;;;;;;4.30;3.50;;;;;;;;;;6222422;22;20481;-88
2023/01/29 01:03:41;;;;;;;3.78;3.25;;;;;;;;;;6224304;22;20023;-89
2023/01/29 01:06:13;;;;;;;4.90;3.95;;;;;;;;;;6223326;22;20023;-87
2023/01/29 01:11:29;;;;;;;3.20;2.90;;;;;;;;;;6261022;22;20015;-88
2023/01/29 01:14:00;;;;;;;4.78;3.25;;;;;;;;;;6226602;22;20015;-88
2023/01/29 01:16:37;;;;;;;3.72;2.60;;;;;;;;;;6254021;22;20024;-86
2023/01/29 01:19:07;;;;;;;6.57;2.88;;;;;;;;;;6228637;22;20024;-87
2023/01/29 01:21:35;;;;;;;3.47;3.08;;;;;;;;;;6223443;22;20038;-88
2023/01/29 01:24:04;;;;;;;3.22;2.67;;;;;;;;;;6223126;22;20022;-88
2023/01/29 01:26:33;;;;;;;4.40;3.60;;;;;;;;;;6223457;22;20015;-89
2023/01/29 01:29:01;;;;;;;3.97;3.53;;;;;;;;;;6223843;22;20023;-88
2023/01/29 01:31:32;;;;;;;5.43;3.63;;;;;;;;;;6227617;22;20511;-87
2023/01/29 01:34:02;;;;;;;5.37;3.37;;;;;;;;;;6258316;22;20018;-89
2023/01/29 01:36:34;;;;;;;7.63;3.83;;;;;;;;;;6228238;22;20020;-88
2023/01/29 01:39:04;;;;;;;5.10;4.22;;;;;;;;;;6227492;22;20015;-88
2023/01/29 01:41:36;;;;;;;8.82;3.38;;;;;;;;;;6252267;22;20197;-89
2023/01/29 01:44:05;;;;;;;7.03;3.35;;;;;;;;;;6227070;22;20488;-89
2023/01/29 01:46:34;;;;;;;4.03;2.60;;;;;;;;;;6226374;22;20016;-88
2023/01/29 01:49:08;;;;;;;5.57;3.50;;;;;;;;;;6228004;22;20355;-89
2023/01/29 01:51:40;;;;;;;3.63;2.55;;;;;;;;;;6252343;22;20019;-87
2023/01/29 01:54:12;;;;;;;4.28;3.13;;;;;;;;;;6226678;22;20475;-88
2023/01/29 01:56:44;;;;;;;4.18;2.95;;;;;;;;;;6260616;22;20019;-88
2023/01/29 01:59:17;;;;;;;4.80;3.28;;;;;;;;;;6253315;22;20030;-89
2023/01/29 02:01:49;;;;;;;3.50;2.67;;;;;;;;;;6227096;22;20205;-87
2023/01/29 02:09:56;;;;;;;5.40;3.67;;;;;;;;;;6258515;22;20012;-87
2023/01/29 02:12:27;;;;;;;6.22;3.55;;;;;;;;;;6227364;22;20012;-89
2023/01/29 02:15:02;;;;;;;3.65;3.20;;;;;;;;;;6226273;22;20023;-89
2023/01/29 02:17:31;;;;;;;4.78;3.42;;;;;;;;;;6279237;22;20016;-89
2023/01/29 02:20:08;;;;;;;6.88;3.75;;;;;;;;;;6225219;22;20054;-88
2023/01/29 02:23:08;;;;;;;4.53;4.05;;;;;;;;;;6226025;22;20026;-86
2023/01/29 02:25:56;;;;;;;3.75;2.92;;;;;;;;;;6224911;22;20039;-88
2023/01/29 02:28:31;;;;;;;4.80;3.30;;;;;;;;;;6250436;22;20038;-87
2023/01/29 02:31:12;;;;;;;6.07;3.92;;;;;;;;;;6225003;22;20034;-88
2023/01/29 02:33:52;;;;;;;4.90;3.45;;;;;;;;;;6226565;22;20016;-87
2023/01/29 02:36:28;;;;;;;3.72;2.75;;;;;;;;;;6224866;22;20613;-89
2023/01/29 02:39:04;;;;;;;4.05;3.40;;;;;;;;;;6261885;22;20038;-89
2023/01/29 02:41:37;;;;;;;5.00;3.33;;;;;;;;;;6201326;22;20023;-88
2023/01/29 02:44:12;;;;;;;3.67;3.25;;;;;;;;;;6233834;22;20023;-90
2023/01/29 02:46:49;;;;;;;4.13;3.70;;;;;;;;;;6232400;22;20014;-87
2023/01/29 02:49:23;;;;;;;4.40;3.30;;;;;;;;;;6263572;22;20020;-87
2023/01/29 02:51:55;;;;;;;4.70;3.72;;;;;;;;;;6225182;22;20012;-90
2023/01/29 02:54:31;;;;;;;6.85;4.07;;;;;;;;;;6226449;22;20020;-89
2023/01/29 02:57:15;;;;;;;5.47;3.28;;;;;;;;;;6227855;22;20015;-88
2023/01/29 02:59:47;;;;;;;6.53;3.95;;;;;;;;;;6221718;22;20075;-86
2023/01/29 03:02:19;;;;;;;6.60;3.47;;;;;;;;;;6261673;22;20011;-88
2023/01/29 03:04:50;;;;;;;5.80;4.25;;;;;;;;;;6251731;22;20015;-86
2023/01/29 03:10:05;;;;;;;4.47;3.80;;;;;;;;;;6226397;22;20019;-89
2023/01/29 03:12:44;;;;;;;4.80;3.67;;;;;;;;;;6225331;22;20015;-87
2023/01/29 03:15:18;;;;;;;4.20;3.45;;;;;;;;;;6224519;22;20027;-88
2023/01/29 03:18:10;;;;;;;4.95;3.10;;;;;;;;;;6226675;22;20539;-87
2023/01/29 03:20:46;;;;;;;3.80;3.40;;;;;;;;;;6223684;22;20016;-87
2023/01/29 03:23:34;;;;;;;4.85;3.63;;;;;;;;;;6224754;22;20375;-87
2023/01/29 03:34:34;;;;;;;6.20;4.18;;;;;;;;;;6226428;22;20614;-88
2023/01/29 03:37:08;;;;;;;4.53;3.38;;;;;;;;;;6223799;22;20022;-87
2023/01/29 03:39:37;;;;;;;4.63;2.97;;;;;;;;;;6259406;22;20031;-87
2023/01/29 03:42:15;;;;;;;7.47;2.95;;;;;;;;;;6224816;22;20019;-87
2023/01/29 03:44:53;;;;;;;9.50;3.75;;;;;;;;;;6223634;22;20016;-87
2023/01/29 03:47:42;;;;;;;3.97;3.45;;;;;;;;;;6259884;22;20015;-87
2023/01/29 03:50:19;;;;;;;3.15;2.70;;;;;;;;;;6258985;22;20019;-87
2023/01/29 03:52:50;;;;;;;3.65;3.15;;;;;;;;;;6224984;22;20016;-87
2023/01/29 03:55:24;;;;;;;3.50;2.92;;;;;;;;;;6224769;22;20019;-86
2023/01/29 03:57:56;;;;;;;4.32;3.70;;;;;;;;;;6225548;22;20022;-87
2023/01/29 04:00:27;;;;;;;3.92;3.55;;;;;;;;;;6223061;22;20019;-88
2023/01/29 04:03:10;;;;;;;4.28;2.90;;;;;;;;;;6224925;22;20026;-87
2023/01/29 04:05:43;;;;;;;5.55;4.32;;;;;;;;;;6223537;22;20012;-80
2023/01/29 04:08:25;;;;;;;4.55;3.67;;;;;;;;;;6257511;22;20023;-80
2023/01/29 04:10:54;;;;;;;4.53;3.85;;;;;;;;;;6254987;22;20022;-80
2023/01/29 04:13:24;;;;;;;4.97;3.85;;;;;;;;;;6246543;22;20464;-80
2023/01/29 04:15:57;;;;;;;6.78;3.95;;;;;;;;;;6217644;22;20016;-80
2023/01/29 04:18:46;;;;;;;3.42;3.13;;;;;;;;;;6245966;22;20020;-80
2023/01/29 04:21:16;;;;;;;4.88;4.32;;;;;;;;;;6218450;22;20499;-80
2023/01/29 04:23:43;;;;;;;4.90;3.17;;;;;;;;;;6246325;22;20016;-80
2023/01/29 04:26:22;;;;;;;4.90;3.42;;;;;;;;;;6243845;22;20016;-80
2023/01/29 04:29:01;;;;;;;3.63;3.05;;;;;;;;;;6221163;22;20023;-80
2023/01/29 04:31:31;;;;;;;3.17;2.88;;;;;;;;;;6256215;22;20015;-80
2023/01/29 04:34:06;;;;;;;4.18;3.22;;;;;;;;;;6222442;22;20399;-80
2023/01/29 04:36:38;;;;;;;5.80;3.97;;;;;;;;;;6248678;22;20011;-80
2023/01/29 04:39:13;;;;;;;5.03;4.55;;;;;;;;;;6257023;22;20023;-80
2023/01/29 04:41:46;;;;;;;3.63;2.80;;;;;;;;;;6258144;22;20016;-80
2023/01/29 04:44:18;;;;;;;3.95;3.58;;;;;;;;;;6285533;22;20325;-79
2023/01/29 04:46:48;;;;;;;3.65;2.85;;;;;;;;;;6246650;22;20015;-80
2023/01/29 04:49:29;;;;;;;3.88;3.15;;;;;;;;;;6273453;22;20347;-79
2023/01/29 04:52:03;;;;;;;3.72;2.72;;;;;;;;;;6284414;22;20019;-80
2023/01/29 04:54:34;;;;;;;;;;;;;;;;;;6284757;22;20018;-80
2023/01/29 04:57:06;;;;;;;4.93;2.58;;;;;;;;;;6275357;22;19919;-79
2023/01/29 04:59:40;;;;;;;4.85;3.85;;;;;;;;;;6281721;22;20016;-79
2023/01/29 05:02:13;;;;;;;4.28;3.20;;;;;;;;;;6259151;22;20023;-79
2023/01/29 05:04:43;;;;;;;8.30;3.47;;;;;;;;;;6274630;22;20487;-80
2023/01/29 05:07:12;;;;;;;6.30;3.42;;;;;;;;;;6246996;22;20016;-79
2023/01/29 05:09:42;;;;;;;4.30;3.05;;;;;;;;;;6218999;22;20015;-79
2023/01/29 05:12:10;;;;;;;4.65;3.42;;;;;;;;;;6247570;22;20392;-79
2023/01/29 05:14:39;;;;;;;4.32;3.55;;;;;;;;;;6280182;22;20015;-79
2023/01/29 05:17:12;;;;;;;5.70;4.53;;;;;;;;;;6284283;22;20015;-79
2023/01/29 05:19:40;;;;;;;5.35;3.90;;;;;;;;;;6290628;22;20012;-81
2023/01/29 05:22:12;;;;;;;5.38;3.80;;;;;;;;;;6249354;22;20019;-80
2023/01/29 05:24:45;;;;;;;5.53;3.38;;;;;;;;;;6222217;22;20031;-79
2023/01/29 05:30:06;;;;;;;3.63;3.28;;;;;;;;;;6218246;22;20019;-79
2023/01/29 05:32:36;;;;;;;4.32;3.28;;;;;;;;;;6285650;22;20543;-80
2023/01/29 05:35:03;;;;;;;3.95;3.35;;;;;;;;;;6247532;22;20019;-80
2023/01/29 05:37:32;;;;;;;3.95;3.13;;;;;;;;;;6248239;22;20027;-80
2023/01/29 05:39:59;;;;;;;6.05;3.65;;;;;;;;;;6271793;22;20015;-80
2023/01/29 05:42:26;;;;;;;3.55;3.25;;;;;;;;;;6223252;22;20027;-80
2023/01/29 05:44:53;;;;;;;4.55;3.85;;;;;;;;;;6248172;22;20011;-80
2023/01/29 05:47:23;;;;;;;9.00;4.35;;;;;;;;;;6272992;22;20038;-80
2023/01/29 05:49:53;;;;;;;5.25;3.83;;;;;;;;;;6245452;22;20012;-79
2023/01/29 05:52:20;;;;;;;4.97;3.50;;;;;;;;;;6285546;22;20011;-80
2023/01/29 05:54:49;;;;;;;7.55;5.00;;;;;;;;;;6246859;22;20016;-79
2023/01/29 05:57:16;;;;;;;5.32;4.28;;;;;;;;;;6272683;22;20020;-80
2023/01/29 05:59:43;;;;;;;7.90;4.65;;;;;;;;;;6269429;22;20465;-80
2023/01/29 06:02:11;;;;;;;4.53;3.92;;;;;;;;;;6274011;22;20016;-80
2023/01/29 06:04:38;;;;;;;7.90;4.20;;;;;;;;;;6272021;22;20019;-80
2023/01/29 06:07:07;;;;;;;4.93;4.40;;;;;;;;;;6245665;22;20007;-80
2023/01/29 06:09:37;;;;;;;4.22;3.42;;;;;;;;;;6271341;22;20019;-80
2023/01/29 06:12:06;;;;;;;4.25;3.83;;;;;;;;;;6272941;22;20536;-80
2023/01/29 06:14:36;;;;;;;5.05;3.33;;;;;;;;;;6258097;22;20031;-80
2023/01/29 06:17:03;;;;;;;5.28;3.67;;;;;;;;;;6282895;22;20423;-80
2023/01/29 06:19:33;;;;;;;5.22;4.30;;;;;;;;;;6219915;22;20031;-80
2023/01/29 06:22:00;;;;;;;8.95;7.07;;;;;;;;;;6273398;22;20034;-80
2023/01/29 06:24:27;;;;;;;18.02;12.68;;;;;;;;;;6275307;22;20022;-80
2023/01/29 06:26:54;;;;;;;19.38;9.88;;;;;;;;;;6219778;22;20016;-80
2023/01/29 06:29:25;;;;;;;11.45;8.85;;;;;;;;;;6244604;22;20038;-80
2023/01/29 06:31:52;;;;;;;12.18;7.20;;;;;;;;;;6282499;22;20018;-80
2023/01/29 06:34:22;;;;;;;6.55;4.85;;;;;;;;;;6246511;22;20027;-80
2023/01/29 06:36:54;;;;;;;5.63;4.65;;;;;;;;;;6273514;22;20030;-80
2023/01/29 06:39:21;;;;;;;8.23;5.13;;;;;;;;;;6270275;22;20016;-80
2023/01/29 06:41:48;;;;;;;5.82;4.50;;;;;;;;;;6246049;22;20297;-80
2023/01/29 06:44:16;;;;;;;8.55;4.68;;;;;;;;;;6283055;22;20340;-80
2023/01/29 06:46:44;;;;;;;5.20;3.33;;;;;;;;;;6246801;22;20012;-80
2023/01/29 06:49:11;;;;;;;4.70;3.25;;;;;;;;;;6245057;22;20019;-80
2023/01/29 06:51:39;;;;;;;4.40;3.63;;;;;;;;;;6271843;22;20020;-80
2023/01/29 06:54:07;;;;;;;3.67;3.33;;;;;;;;;;6246176;22;20012;-80
2023/01/29 06:56:34;;;;;;;7.05;3.72;;;;;;;;;;6272975;22;20019;-80
2023/01/29 06:59:01;;;;;;;4.38;3.97;;;;;;;;;;6271644;22;20487;-80
2023/01/29 07:01:30;;;;;;;6.88;4.28;;;;;;;;;;6246432;22;20016;-81
2023/01/29 07:04:00;;;;;;;4.90;4.32;;;;;;;;;;6245308;22;20011;-81
2023/01/29 07:06:31;;;;;;;5.78;4.78;;;;;;;;;;6248015;22;20015;-81
2023/01/29 07:09:03;;;;;;;4.82;4.35;;;;;;;;;;6283352;22;20442;-80
2023/01/29 07:11:30;;;;;;;5.20;3.67;;;;;;;;;;6271027;22;20023;-80
2023/01/29 07:13:57;;;;;;;5.90;4.80;;;;;;;;;;6270809;22;20031;-80
2023/01/29 07:16:27;;;;;;;6.68;3.90;;;;;;;;;;6272764;22;20023;-80
2023/01/29 07:18:57;;;;;;;5.03;4.53;;;;;;;;;;6271982;22;20019;-80
2023/01/29 07:21:28;;;;;;;4.72;3.45;;;;;;;;;;6282887;22;20034;-80
2023/01/29 07:23:55;;;;;;;5.68;4.22;;;;;;;;;;6274054;22;20016;-80
2023/01/29 07:26:22;;;;;;;8.85;4.72;;;;;;;;;;6247026;22;20008;-80
2023/01/29 07:28:49;;;;;;;9.98;5.45;;;;;;;;;;6219721;22;20463;-80
2023/01/29 07:31:17;;;;;;;6.32;5.82;;;;;;;;;;6271713;22;20011;-80
2023/01/29 07:33:44;;;;;;;10.38;4.35;;;;;;;;;;6272706;22;20011;-80
2023/01/29 07:36:14;;;;;;;7.63;5.55;;;;;;;;;;6270382;22;20012;-80
2023/01/29 07:38:49;;;;;;;10.10;4.63;;;;;;;;;;6271441;22;20073;-80
2023/01/29 07:41:18;;;;;;;9.05;6.43;;;;;;;;;;6271726;22;20490;-80
2023/01/29 07:43:47;;;;;;;7.50;5.82;;;;;;;;;;6254898;22;20185;-80
2023/01/29 07:46:15;;;;;;;6.93;4.47;;;;;;;;;;6270039;22;20015;-80
2023/01/29 07:48:44;;;;;;;5.95;3.95;;;;;;;;;;6273527;22;20027;-80
2023/01/29 07:51:11;;;;;;;8.63;5.28;;;;;;;;;;6272045;22;20012;-80
2023/01/29 07:53:39;;;;;;;6.32;4.80;;;;;;;;;;6273911;22;20023;-80
2023/01/29 07:56:09;;;;;;;5.07;4.20;;;;;;;;;;6219614;22;20364;-80
2023/01/29 07:58:36;;;;;;;8.60;5.75;;;;;;;;;;6270754;22;20012;-80
2023/01/29 08:01:06;;;;;;;4.65;3.90;;;;;;;;;;6241406;22;20595;-80
2023/01/29 08:03:35;;;;;;;10.57;5.15;;;;;;;;;;6272691;22;20016;-80
2023/01/29 08:06:03;;;;;;;5.35;3.90;;;;;;;;;;6217527;22;20016;-80
2023/01/29 08:08:30;;;;;;;8.15;5.22;;;;;;;;;;6246249;22;20012;-80
2023/01/29 08:11:00;;;;;;;8.70;5.05;;;;;;;;;;6273712;22;20035;-80
2023/01/29 08:13:29;;;;;;;6.93;4.72;;;;;;;;;;6275605;22;20016;-77
2023/01/29 08:15:59;;;;;;;8.93;4.97;;;;;;;;;;6245607;22;20015;-79
2023/01/29 08:18:26;;;;;;;5.97;5.00;;;;;;;;;;6246555;22;20011;-79
2023/01/29 08:20:59;;;;;;;8.60;5.47;;;;;;;;;;6283602;22;20019;-79
2023/01/29 08:23:27;;;;;;;10.23;8.20;;;;;;;;;;6246782;22;20015;-80
2023/01/29 08:25:56;;;;;;;10.85;7.75;;;;;;;;;;6246302;22;20023;-79
2023/01/29 08:28:26;;;;;;;9.18;6.93;;;;;;;;;;6274744;22;20340;-79
2023/01/29 08:30:55;;;;;;;7.45;5.93;;;;;;;;;;6273242;22;20012;-80
2023/01/29 08:33:22;;;;;;;10.23;6.57;;;;;;;;;;6258497;22;20012;-79
2023/01/29 08:35:50;;;;;;;7.88;6.05;;;;;;;;;;6220709;22;20375;-79
2023/01/29 08:38:17;;;;;;;9.45;7.10;;;;;;;;;;6246716;22;20026;-79
2023/01/29 08:40:44;;;;;;;9.63;8.30;;;;;;;;;;6270638;22;20027;-79
2023/01/29 08:43:14;;;;;;;9.85;8.68;;;;;;;;;;6274290;22;20016;-79
2023/01/29 08:45:43;;;;;;;12.48;10.48;;;;;;;;;;6273499;22;20027;-79
2023/01/29 08:48:11;;;;;;;13.30;10.32;;;;;;;;;;6247530;22;20030;-80
2023/01/29 08:50:41;;;;;;;11.63;8.85;;;;;;;;;;6245774;22;20019;-80
2023/01/29 08:53:09;;;;;;;11.40;8.77;;;;;;;;;;6248009;22;20012;-80
2023/01/29 08:55:37;;;;;;;8.23;7.15;;;;;;;;;;6273987;22;20331;-80
2023/01/29 08:58:05;;;;;;;10.98;8.32;;;;;;;;;;6284343;22;20018;-81
2023/01/29 09:00:32;;;;;;;11.05;7.00;;;;;;;;;;6273179;22;20023;-81
2023/01/29 09:02:59;;;;;;;8.48;7.20;;;;;;;;;;6246970;22;20502;-81
2023/01/29 09:05:28;;;;;;;8.27;7.20;;;;;;;;;;6273196;22;20011;-81
2023/01/29 09:07:58;;;;;;;10.90;6.43;;;;;;;;;;6285730;22;20027;-81
2023/01/29 09:10:26;;;;;;;7.78;6.15;;;;;;;;;;6218582;22;20467;-81
2023/01/29 09:12:55;;;;;;;7.78;7.03;;;;;;;;;;6275368;22;20016;-82
2023/01/29 09:15:22;;;;;;;8.18;7.07;;;;;;;;;;6271631;22;20011;-81
2023/01/29 09:17:50;;;;;;;8.45;7.63;;;;;;;;;;6248651;22;20347;-81
2023/01/29 09:20:18;;;;;;;7.38;6.63;;;;;;;;;;6272668;22;20012;-81
2023/01/29 09:22:48;;;;;;;8.68;5.72;;;;;;;;;;6222298;22;20016;-81
2023/01/29 09:25:20;;;;;;;5.57;4.97;;;;;;;;;;6221047;22;20040;-81
2023/01/29 09:27:49;;;;;;;6.32;5.28;;;;;;;;;;6257708;22;20034;-81
2023/01/29 09:30:19;;;;;;;8.82;6.03;;;;;;;;;;6271173;22;20497;-81
2023/01/29 09:32:46;;;;;;;7.95;5.80;;;;;;;;;;6247920;22;20019;-82
2023/01/29 09:35:13;;;;;;;8.27;6.63;;;;;;;;;;6273001;22;20012;-81
2023/01/29 09:37:43;;;;;;;8.23;6.28;;;;;;;;;;6275139;22;20125;-81
2023/01/29 09:40:22;;;;;;;6.25;5.65;;;;;;;;;;6219045;22;20027;-81
2023/01/29 09:42:55;;;;;;;7.43;6.15;;;;;;;;;;6257645;22;20023;-81
2023/01/29 09:45:24;;;;;;;9.77;5.57;;;;;;;;;;6272726;22;20012;-81
2023/01/29 09:47:59;;;;;;;9.80;7.15;;;;;;;;;;6285676;22;20012;-82
2023/01/29 09:50:32;;;;;;;7.53;6.75;;;;;;;;;;6257525;22;20468;-79
2023/01/29 09:53:03;;;;;;;5.97;5.32;;;;;;;;;;6284654;22;20033;-81
2023/01/29 09:55:37;;;;;;;8.93;6.80;;;;;;;;;;6281195;22;20435;-81
2023/01/29 09:58:13;;;;;;;9.07;6.45;;;;;;;;;;6272366;22;20016;-82
2023/01/29 10:00:48;;;;;;;7.65;6.47;;;;;;;;;;6257696;22;20016;-81
2023/01/29 10:03:27;;;;;;;8.13;7.32;;;;;;;;;;6273875;22;20479;-82
2023/01/29 10:06:15;;;;;;;7.97;6.13;;;;;;;;;;6248247;22;20042;-88
2023/01/29 10:09:14;;;;;;;8.50;5.63;;;;;;;;;;6248259;22;20023;-87
2023/01/29 10:11:49;;;;;;;8.07;6.60;;;;;;;;;;6199045;22;20023;-88
2023/01/29 10:14:21;;;;;;;7.05;6.35;;;;;;;;;;6224968;22;20042;-88
2023/01/29 10:16:58;;;;;;;9.48;6.38;;;;;;;;;;6224695;22;20026;-89
2023/01/29 10:19:53;;;;;;;5.40;4.90;;;;;;;;;;6225098;22;20018;-88
2023/01/29 10:22:46;;;;;;;6.07;4.70;;;;;;;;;;6224536;22;20034;-92
2023/01/29 10:25:19;;;;;;;9.13;6.18;;;;;;;;;;6229641;22;20016;-91
2023/01/29 10:27:54;;;;;;;6.85;4.90;;;;;;;;;;6236233;22;20030;-91
2023/01/29 10:30:32;;;;;;;7.72;5.70;;;;;;;;;;6223895;22;20018;-90
2023/01/29 10:33:05;;;;;;;7.35;6.53;;;;;;;;;;6224144;22;20011;-89
2023/01/29 10:35:41;;;;;;;7.38;5.57;;;;;;;;;;6224395;22;20020;-89
2023/01/29 10:38:19;;;;;;;9.00;6.57;;;;;;;;;;6222686;22;20016;-89
2023/01/29 10:40:56;;;;;;;8.27;6.38;;;;;;;;;;6222661;22;20023;-89
2023/01/29 10:43:38;;;;;;;7.03;5.78;;;;;;;;;;6221404;22;20023;-89
2023/01/29 10:46:16;;;;;;;8.20;6.05;;;;;;;;;;6257893;22;20012;-88
2023/01/29 10:48:54;;;;;;;6.90;5.90;;;;;;;;;;6220115;22;20024;-90
2023/01/29 10:51:36;;;;;;;7.63;6.40;;;;;;;;;;6222274;22;20015;-90
2023/01/29 10:54:20;;;;;;;7.60;5.82;;;;;;;;;;6225399;22;20459;-88
2023/01/29 10:56:58;;;;;;;7.30;5.80;;;;;;;;;;6230440;22;20015;-87
2023/01/29 10:59:47;;;;;;;15.07;6.80;;;;;;;;;;6228690;22;20493;-91
2023/01/29 11:02:20;;;;;;;17.67;6.35;;;;;;;;;;6274565;22;20023;-89
2023/01/29 11:04:48;;;;;;;7.53;6.47;;;;;;;;;;6249655;22;20026;-90
2023/01/29 11:07:20;;;;;;;6.95;6.05;;;;;;;;;;6224311;22;20011;-88
2023/01/29 11:09:56;;;;;;;9.93;6.93;;;;;;;;;;6222618;22;20019;-87
2023/01/29 11:12:37;;;;;;;8.50;6.32;;;;;;;;;;6224025;22;20020;-89
2023/01/29 11:15:15;;;;;;;10.35;7.07;;;;;;;;;;6223495;22;20023;-90
2023/01/29 11:18:09;;;;;;;9.18;6.88;;;;;;;;;;6259610;22;20023;-89
2023/01/29 11:20:37;;;;;;;8.30;6.22;;;;;;;;;;6221510;22;20016;-88
2023/01/29 11:23:04;;;;;;;8.90;7.07;;;;;;;;;;6247757;22;20502;-88
2023/01/29 11:25:52;;;;;;;9.10;6.85;;;;;;;;;;6229333;22;20023;-89
2023/01/29 11:28:37;;;;;;;10.63;6.38;;;;;;;;;;6250427;22;20023;-88
2023/01/29 11:31:18;;;;;;;8.98;6.63;;;;;;;;;;6223294;22;20023;-89
2023/01/29 11:33:48;;;;;;;10.90;7.97;;;;;;;;;;6223071;22;20467;-88
2023/01/29 11:36:29;;;;;;;11.95;7.68;;;;;;;;;;6248259;22;20019;-89
2023/01/29 11:39:18;;;;;;;7.03;5.90;;;;;;;;;;6222796;22;20020;-87
2023/01/29 11:41:51;;;;;;;7.60;5.90;;;;;;;;;;6224835;22;20020;-89
2023/01/29 11:44:21;;;;;;;11.65;6.10;;;;;;;;;;6255404;22;20347;-89
2023/01/29 11:46:50;;;;;;;9.88;6.32;;;;;;;;;;6250733;22;20023;-89
2023/01/29 11:49:30;;;;;;;8.07;6.57;;;;;;;;;;6223618;22;20011;-90
2023/01/29 11:52:00;;;;;;;8.98;7.18;;;;;;;;;;6225760;22;20625;-88
2023/01/29 11:54:34;;;;;;;8.60;7.30;;;;;;;;;;6225737;22;20016;-90
2023/01/29 11:57:04;;;;;;;;;;;;;;;;;;6251794;22;20016;-87
2023/01/29 11:59:47;;;;;;;10.18;6.55;;;;;;;;;;6260439;22;19922;-89
2023/01/29 12:02:29;;;;;;;10.13;7.80;;;;;;;;;;6251879;22;20502;-90
2023/01/29 12:05:03;;;;;;;9.60;7.13;;;;;;;;;;6224359;22;20023;-89
2023/01/29 12:07:33;;;;;;;8.40;6.70;;;;;;;;;;6227610;22;20421;-88
2023/01/29 12:10:04;;;;;;;13.63;8.27;;;;;;;;;;6250448;22;20458;-91
2023/01/29 12:12:40;;;;;;;10.00;7.43;;;;;;;;;;6224940;22;20350;-89
2023/01/29 12:15:25;;;;;;;8.15;6.90;;;;;;;;;;6223847;22;20019;-88
2023/01/29 12:18:04;;;;;;;9.18;6.65;;;;;;;;;;6260230;22;20343;-88
2023/01/29 12:20:36;;;;;;;10.48;8.73;;;;;;;;;;6287781;22;20011;-89
2023/01/29 12:23:11;;;;;;;9.70;8.65;;;;;;;;;;6223743;22;20366;-91
2023/01/29 12:25:45;;;;;;;10.70;8.95;;;;;;;;;;6225631;22;20039;-88
2023/01/29 12:28:23;;;;;;;10.20;9.15;;;;;;;;;;6250645;22;20011;-90
2023/01/29 12:31:00;;;;;;;10.23;8.40;;;;;;;;;;6259932;22;20354;-88
2023/01/29 12:33:38;;;;;;;10.65;8.23;;;;;;;;;;6224034;22;20051;-89
2023/01/29 12:36:11;;;;;;;12.15;9.25;;;;;;;;;;6224412;22;20020;-89
2023/01/29 12:38:44;;;;;;;11.48;8.27;;;;;;;;;;6228989;22;20020;-89
2023/01/29 12:41:28;;;;;;;12.93;9.95;;;;;;;;;;6243705;22;20026;-89
2023/01/29 12:43:58;;;;;;;10.43;7.72;;;;;;;;;;6276473;22;20439;-89
2023/01/29 12:46:28;;;;;;;9.02;7.30;;;;;;;;;;6266653;22;20071;-90
2023/01/29 12:49:02;;;;;;;14.13;8.70;;;;;;;;;;6237523;22;20033;-88
2023/01/29 12:51:37;;;;;;;11.45;8.60;;;;;;;;;;6237988;22;20026;-89
2023/01/29 12:54:06;;;;;;;12.00;8.02;;;;;;;;;;6233676;22;20034;-89
2023/01/29 12:56:39;;;;;;;9.75;8.60;;;;;;;;;;6255787;22;20406;-89
2023/01/29 12:59:15;;;;;;;15.05;7.93;;;;;;;;;;6229095;22;20022;-89
2023/01/29 13:01:43;;;;;;;;;;;;;;;;;;6229456;22;20011;-88
2023/01/29 13:04:16;;;;;;;10.55;7.55;;;;;;;;;;6229017;22;19923;-89
2023/01/29 13:06:51;;;;;;;13.32;8.52;;;;;;;;;;6252901;22;20019;-88
2023/01/29 13:09:27;;;;;;;10.85;8.80;;;;;;;;;;6254311;22;20012;-90
2023/01/29 13:11:57;;;;;;;12.65;8.48;;;;;;;;;;6230845;22;20543;-89
2023/01/29 13:14:29;;;;;;;11.18;9.35;;;;;;;;;;6259746;22;20016;-88
2023/01/29 13:17:08;;;;;;;15.77;10.48;;;;;;;;;;6281595;22;20019;-88
2023/01/29 13:19:44;;;;;;;13.15;9.02;;;;;;;;;;6264971;22;20481;-90
2023/01/29 13:22:17;;;;;;;10.68;9.57;;;;;;;;;;6229782;22;20027;-90
2023/01/29 13:24:47;;;;;;;11.07;8.82;;;;;;;;;;6229293;22;20015;-89
2023/01/29 13:27:22;;;;;;;11.20;8.95;;;;;;;;;;6228228;22;20493;-88
2023/01/29 13:29:49;;;;;;;13.35;8.65;;;;;;;;;;6228802;22;20495;-89
2023/01/29 13:32:21;;;;;;;11.15;8.10;;;;;;;;;;6252288;22;20019;-88
2023/01/29 13:34:51;;;;;;;12.02;9.98;;;;;;;;;;6229623;22;20016;-88
2023/01/29 13:37:27;;;;;;;10.70;9.13;;;;;;;;;;6227947;22;20016;-88
2023/01/29 13:39:55;;;;;;;12.68;8.50;;;;;;;;;;6263241;22;20478;-89
2023/01/29 13:42:25;;;;;;;13.73;10.60;;;;;;;;;;6252477;22;20022;-89
2023/01/29 13:44:57;;;;;;;14.75;10.38;;;;;;;;;;6228933;22;20015;-88
2023/01/29 13:47:28;;;;;;;12.10;9.07;;;;;;;;;;6231101;22;20020;-89
2023/01/29 13:50:01;;;;;;;14.23;11.00;;;;;;;;;;6230584;22;20027;-89
2023/01/29 13:52:38;;;;;;;20.92;12.38;;;;;;;;;;6226164;22;20028;-88
2023/01/29 13:55:08;;;;;;;13.70;11.07;;;;;;;;;;6255621;22;20299;-89
2023/01/29 13:57:49;;;;;;;20.58;9.95;;;;;;;;;;6253248;22;20024;-90
2023/01/29 14:00:55;;;;;;;11.00;8.38;;;;;;;;;;6263523;22;20012;-90
2023/01/29 14:03:53;;;;;;;13.32;9.68;;;;;;;;;;6250318;22;20020;-89
2023/01/29 14:06:52;;;;;;;14.35;10.00;;;;;;;;;;6226562;22;20030;-90
2023/01/29 14:09:59;;;;;;;13.20;10.75;;;;;;;;;;6192168;22;20038;-89
2023/01/29 14:12:38;;;;;;;14.05;9.98;;;;;;;;;;6253534;22;20019;-90
2023/01/29 14:15:36;;;;;;;9.45;8.23;;;;;;;;;;6253295;22;20015;-89
2023/01/29 14:18:19;;;;;;;13.02;8.75;;;;;;;;;;6228820;22;20030;-90
2023/01/29 14:21:12;;;;;;;13.55;9.95;;;;;;;;;;6225737;22;20500;-90
2023/01/29 14:23:45;;;;;;;11.63;9.05;;;;;;;;;;6252596;22;20015;-89
2023/01/29 14:26:23;;;;;;;12.68;8.18;;;;;;;;;;6264067;22;20098;-90
2023/01/29 14:28:57;;;;;;;15.82;10.48;;;;;;;;;;6228840;22;20019;-89
2023/01/29 14:31:32;;;;;;;14.18;11.18;;;;;;;;;;6227292;22;20022;-89
2023/01/29 14:34:01;;;;;;;12.73;8.27;;;;;;;;;;6227443;22;20019;-89
2023/01/29 14:36:40;;;;;;;14.35;9.77;;;;;;;;;;6226085;22;20066;-88
2023/01/29 14:39:24;;;;;;;14.25;10.73;;;;;;;;;;6252976;22;20030;-88
2023/01/29 14:41:52;;;;;;;10.00;8.50;;;;;;;;;;6260326;22;20011;-88
2023/01/29 14:45:06;;;;;;;15.38;9.38;;;;;;;;;;6227725;22;20020;-89
2023/01/29 14:48:08;;;;;;;14.18;8.70;;;;;;;;;;6252698;22;20019;-89
2023/01/29 14:50:59;;;;;;;12.63;10.30;;;;;;;;;;6227792;22;20022;-89
2023/01/29 14:53:50;;;;;;;11.90;9.00;;;;;;;;;;6226050;22;20374;-90
2023/01/29 14:56:28;;;;;;;17.58;10.75;;;;;;;;;;6227681;22;20024;-90
2023/01/29 14:59:04;;;;;;;12.82;8.40;;;;;;;;;;6228996;22;20382;-90
2023/01/29 15:01:36;;;;;;;14.88;9.18;;;;;;;;;;6228849;22;20011;-89
2023/01/29 15:04:05;;;;;;;13.45;9.52;;;;;;;;;;6229369;22;20022;-89
2023/01/29 15:06:39;;;;;;;15.00;9.15;;;;;;;;;;6199036;22;20026;-88
2023/01/29 15:09:13;;;;;;;11.95;9.40;;;;;;;;;;6226718;22;20034;-88
2023/01/29 15:11:48;;;;;;;11.50;8.65;;;;;;;;;;6261854;22;20012;-89
2023/01/29 15:14:27;;;;;;;13.98;9.63;;;;;;;;;;6224039;22;20049;-88
2023/01/29 15:17:15;;;;;;;11.98;9.10;;;;;;;;;;6245813;22;20031;-89
2023/01/29 15:19:46;;;;;;;10.88;9.60;;;;;;;;;;6226133;22;20015;-88
2023/01/29 15:22:15;;;;;;;12.52;9.73;;;;;;;;;;6229100;22;20038;-89
2023/01/29 15:24:44;;;;;;;11.35;8.95;;;;;;;;;;6253694;22;20474;-88
2023/01/29 15:27:17;;;;;;;14.07;10.07;;;;;;;;;;6255227;22;20441;-90
2023/01/29 15:29:58;;;;;;;13.93;10.55;;;;;;;;;;6233519;22;20016;-89
2023/01/29 15:32:30;;;;;;;10.48;9.07;;;;;;;;;;6226560;22;20285;-90
2023/01/29 15:35:01;;;;;;;14.95;9.25;;;;;;;;;;6226334;22;20407;-88
2023/01/29 15:37:34;;;;;;;13.65;10.15;;;;;;;;;;6249969;22;20024;-89
2023/01/29 15:40:05;;;;;;;12.35;9.65;;;;;;;;;;6225449;22;20019;-87
2023/01/29 15:42:45;;;;;;;16.63;9.77;;;;;;;;;;6226594;22;20018;-89